Time;durP1;ratioP1;P1;durP2;ratioP2;P2;SDS_P1;SDS_P2;PMS_P1;PMS_P2;Temp;Humidity;BMP_temperature;BMP_pressure;BME280_temperature;BME280_humidity;BME280_pressure;Samples;Min_cycle;Max_cycle;Signal;HPM_P1;HPM_P2
2022/09/06 00:01:16;;;;;;;;;;;16.40;99.90;;;;;;5059864;28;19932;-73
2022/09/06 00:03:48;;;;;;;;;;;16.50;99.90;;;;;;5058941;28;19929;-73
2022/09/06 00:06:20;;;;;;;;;;;16.50;99.90;;;;;;5057373;28;19924;-72
2022/09/06 00:08:47;;;;;;;;;;;16.50;99.90;;;;;;5057557;28;20387;-72
2022/09/06 00:11:19;;;;;;;;;;;16.40;99.90;;;;;;5036653;28;19936;-73
2022/09/06 00:13:50;;;;;;;;;;;16.40;99.90;;;;;;5049575;28;20380;-73
2022/09/06 00:16:23;;;;;;;;;;;16.30;99.90;;;;;;5042377;28;20901;-73
2022/09/06 00:18:55;;;;;;;;;;;16.30;99.90;;;;;;5064192;28;19970;-73
2022/09/06 00:21:27;;;;;;;;;;;16.30;99.90;;;;;;5064679;28;19931;-72
2022/09/06 00:23:59;;;;;;;;;;;16.30;99.90;;;;;;5059139;28;19929;-73
2022/09/06 00:26:31;;;;;;;;;;;16.30;99.90;;;;;;5062554;28;19925;-73
2022/09/06 00:29:02;;;;;;;;;;;16.30;99.90;;;;;;5047449;28;20111;-73
2022/09/06 00:31:34;;;;;;;;;;;16.20;99.90;;;;;;5054914;28;19924;-73
2022/09/06 00:34:01;;;;;;;;;;;16.10;99.90;;;;;;5060354;28;19925;-73
2022/09/06 00:36:33;;;;;;;;;;;16.00;99.90;;;;;;5070627;28;19931;-73
2022/09/06 00:39:04;;;;;;;;;;;16.00;99.90;;;;;;5062185;28;19929;-73
2022/09/06 00:41:36;;;;;;;;;;;16.00;99.90;;;;;;5063418;28;19951;-73
2022/09/06 00:44:08;;;;;;;;;;;16.00;99.90;;;;;;5063530;28;19924;-73
2022/09/06 00:46:35;;;;;;;;;;;16.00;99.90;;;;;;5058807;28;19950;-72
2022/09/06 00:49:13;;;;;;;;;;;16.00;99.90;;;;;;5058416;28;19925;-73
2022/09/06 00:51:45;;;;;;;;;;;16.00;99.90;;;;;;5064081;28;20280;-73
2022/09/06 00:54:16;;;;;;;;;;;16.00;99.90;;;;;;5069996;28;19932;-73
2022/09/06 00:56:43;;;;;;;;;;;16.00;99.90;;;;;;5060319;28;19924;-73
2022/09/06 00:59:15;;;;;;;;;;;15.90;99.90;;;;;;5065012;28;19929;-72
2022/09/06 01:01:47;;;;;;;;;;;15.80;99.90;;;;;;5057579;28;19925;-73
2022/09/06 01:04:19;;;;;;;;;;;15.70;99.90;;;;;;5060651;28;20406;-73
2022/09/06 01:07:14;;;;;;;;;;;15.60;99.90;;;;;;5064967;28;19932;-73
2022/09/06 01:09:52;;;;;;;;;;;15.60;99.90;;;;;;5059495;28;19929;-72
2022/09/06 01:12:23;;;;;;;;;;;15.50;99.90;;;;;;5056246;28;20414;-73
2022/09/06 01:14:55;;;;;;;;;;;15.50;99.90;;;;;;5062872;28;19947;-73
2022/09/06 01:17:25;;;;;;;;;;;15.30;99.90;;;;;;5059472;28;19939;-73
2022/09/06 01:20:15;;;;;;;;;;;15.30;99.90;;;;;;5056871;28;19936;-73
2022/09/06 01:22:56;;;;;;;;;;;15.40;99.90;;;;;;5063909;28;19928;-72
2022/09/06 01:25:37;;;;;;;;;;;15.40;99.90;;;;;;5058043;28;20021;-73
2022/09/06 01:28:24;;;;;;;;;;;15.40;99.90;;;;;;5058929;28;19928;-72
2022/09/06 01:31:03;;;;;;;;;;;15.40;99.90;;;;;;5064626;28;19925;-73
2022/09/06 01:33:39;;;;;;;;;;;15.40;99.90;;;;;;5059584;28;19924;-73
2022/09/06 01:36:13;;;;;;;;;;;15.40;99.90;;;;;;5053024;28;19939;-73
2022/09/06 01:38:45;;;;;;;;;;;15.30;99.90;;;;;;5057560;28;19925;-73
2022/09/06 01:41:17;;;;;;;;;;;15.30;99.90;;;;;;5057149;28;20384;-73
2022/09/06 01:43:50;;;;;;;;;;;15.30;99.90;;;;;;5072462;28;19924;-73
2022/09/06 01:46:29;;;;;;;;;;;15.30;99.90;;;;;;5062402;28;19932;-73
2022/09/06 01:49:09;;;;;;;;;;;15.30;99.90;;;;;;5078435;28;19924;-73
2022/09/06 01:51:50;;;;;;;;;;;15.30;99.90;;;;;;5047674;28;19929;-72
2022/09/06 01:54:41;;;;;;;;;;;15.30;99.90;;;;;;5057240;28;19932;-73
2022/09/06 01:57:15;;;;;;;;;;;15.30;99.90;;;;;;5049930;28;20409;-73
2022/09/06 01:59:47;;;;;;;;;;;15.30;99.90;;;;;;5059967;28;20024;-73
2022/09/06 02:02:22;;;;;;;;;;;15.30;99.90;;;;;;5055779;28;20298;-73
2022/09/06 02:05:03;;;;;;;;;;;15.30;99.90;;;;;;5058064;28;19931;-73
2022/09/06 02:07:35;;;;;;;;;;;15.30;99.90;;;;;;5048129;28;19931;-73
2022/09/06 02:10:11;;;;;;;;;;;15.30;99.90;;;;;;5057151;28;19931;-73
2022/09/06 02:12:44;;;;;;;;;;;15.30;99.90;;;;;;5042912;28;20658;-73
2022/09/06 02:15:25;;;;;;;;;;;15.30;99.90;;;;;;5051265;28;19929;-73
2022/09/06 02:18:02;;;;;;;;;;;15.20;99.90;;;;;;5078550;28;19928;-73
2022/09/06 02:20:35;;;;;;;;;;;15.20;99.90;;;;;;5056231;28;19925;-73
2022/09/06 02:23:07;;;;;;;;;;;15.30;99.90;;;;;;5056643;28;19925;-73
2022/09/06 02:25:42;;;;;;;;;;;15.30;99.90;;;;;;5063055;28;19925;-73
2022/09/06 02:28:09;;;;;;;;;;;15.20;99.90;;;;;;5044325;28;19928;-72
2022/09/06 02:30:47;;;;;;;;;;;15.10;99.90;;;;;;5078035;28;19931;-72
2022/09/06 02:33:20;;;;;;;;;;;15.20;99.90;;;;;;5081321;28;19928;-72
2022/09/06 02:35:53;;;;;;;;;;;15.10;99.90;;;;;;5083900;28;19924;-72
2022/09/06 02:38:21;;;;;;;;;;;15.10;99.90;;;;;;5058129;28;19924;-72
2022/09/06 02:40:53;;;;;;;;;;;15.10;99.90;;;;;;5080942;28;20370;-72
2022/09/06 02:43:24;;;;;;;;;;;15.00;99.90;;;;;;5067944;28;19928;-72
2022/09/06 02:45:56;;;;;;;;;;;15.00;99.90;;;;;;5074751;28;19931;-73
2022/09/06 02:48:28;;;;;;;;;;;15.00;99.90;;;;;;5061220;28;19928;-72
2022/09/06 02:51:03;;;;;;;;;;;15.00;99.90;;;;;;5089756;28;20287;-72
2022/09/06 02:53:35;;;;;;;;;;;15.00;99.90;;;;;;5059466;28;19925;-72
2022/09/06 02:56:07;;;;;;;;;;;15.00;99.90;;;;;;5065919;28;20019;-72
2022/09/06 02:58:39;;;;;;;;;;;15.00;99.90;;;;;;5083489;28;20371;-73
2022/09/06 03:01:11;;;;;;;;;;;15.00;99.90;;;;;;5076769;28;20003;-73
2022/09/06 03:03:42;;;;;;;;;;;15.00;99.90;;;;;;5080941;28;19928;-72
2022/09/06 03:06:14;;;;;;;;;;;14.90;99.90;;;;;;5088930;28;19925;-73
2022/09/06 03:08:41;;;;;;;;;;;14.90;99.90;;;;;;5077977;28;19976;-73
2022/09/06 03:11:12;;;;;;;;;;;15.00;99.90;;;;;;5080753;28;19928;-72
2022/09/06 03:13:44;;;;;;;;;;;15.00;99.90;;;;;;5083263;28;19925;-73
2022/09/06 03:16:16;;;;;;;;;;;14.90;99.90;;;;;;5040901;28;19929;-72
2022/09/06 03:18:47;;;;;;;;;;;15.00;99.90;;;;;;5064107;28;19924;-73
2022/09/06 03:21:19;;;;;;;;;;;15.00;99.90;;;;;;5047488;28;19950;-72
2022/09/06 03:23:51;;;;;;;;;;;15.00;99.90;;;;;;5083901;28;19928;-72
2022/09/06 03:26:22;;;;;;;;;;;15.10;99.90;;;;;;5080232;28;19928;-72
2022/09/06 03:28:54;;;;;;;;;;;15.00;99.90;;;;;;5065702;28;19928;-73
2022/09/06 03:31:21;;;;;;;;;;;15.10;99.90;;;;;;5068394;28;20294;-73
2022/09/06 03:33:52;;;;;;;;;;;15.00;99.90;;;;;;5054202;28;19971;-72
2022/09/06 03:36:19;;;;;;;;;;;15.10;99.90;;;;;;5081228;28;20356;-72
2022/09/06 03:38:52;;;;;;;;;;;15.00;99.90;;;;;;5079147;28;19928;-72
2022/09/06 03:41:24;;;;;;;;;;;15.00;99.90;;;;;;5057443;28;19929;-73
2022/09/06 03:43:56;;;;;;;;;;;15.10;99.90;;;;;;5077163;28;19929;-73
2022/09/06 03:46:29;;;;;;;;;;;15.00;99.90;;;;;;5085529;28;19924;-72
2022/09/06 03:49:01;;;;;;;;;;;15.10;99.90;;;;;;5061196;28;19928;-72
2022/09/06 03:51:32;;;;;;;;;;;15.00;99.90;;;;;;5085822;28;19932;-73
2022/09/06 03:54:04;;;;;;;;;;;14.90;99.90;;;;;;5085500;28;19934;-72
2022/09/06 03:56:31;;;;;;;;;;;14.90;99.90;;;;;;5080359;28;20275;-73
2022/09/06 03:59:03;;;;;;;;;;;14.90;99.90;;;;;;5079803;28;19927;-73
2022/09/06 04:01:34;;;;;;;;;;;14.80;99.90;;;;;;5080603;28;19932;-72
2022/09/06 04:04:06;;;;;;;;;;;14.80;99.90;;;;;;5078873;28;19936;-73
2022/09/06 04:06:37;;;;;;;;;;;14.70;99.90;;;;;;5070914;28;20310;-72
2022/09/06 04:09:10;;;;;;;;;;;14.70;99.90;;;;;;5081388;28;19928;-72
2022/09/06 04:11:41;;;;;;;;;;;14.60;99.90;;;;;;5057949;28;19930;-72
2022/09/06 04:14:13;;;;;;;;;;;14.70;99.90;;;;;;5078184;28;20022;-72
2022/09/06 04:16:44;;;;;;;;;;;14.70;99.90;;;;;;5066656;28;20290;-72
2022/09/06 04:19:16;;;;;;;;;;;14.70;99.90;;;;;;5072561;28;19935;-72
2022/09/06 04:21:48;;;;;;;;;;;14.60;99.90;;;;;;5044485;28;19929;-72
2022/09/06 04:24:19;;;;;;;;;;;14.50;99.90;;;;;;5066855;28;19924;-72
2022/09/06 04:26:51;;;;;;;;;;;14.50;99.90;;;;;;5084431;28;19936;-72
2022/09/06 04:29:23;;;;;;;;;;;14.50;99.90;;;;;;5078513;28;19950;-72
2022/09/06 04:31:50;;;;;;;;;;;14.40;99.90;;;;;;5066237;28;20823;-73
2022/09/06 04:34:16;;;;;;;;;;;14.40;99.90;;;;;;5085600;28;19934;-73
2022/09/06 04:36:48;;;;;;;;;;;14.40;99.90;;;;;;5068711;28;19971;-73
2022/09/06 04:39:19;;;;;;;;;;;14.50;99.90;;;;;;5062057;28;19924;-72
2022/09/06 04:41:51;;;;;;;;;;;14.50;99.90;;;;;;5078742;28;19928;-73
2022/09/06 04:44:23;;;;;;;;;;;14.50;99.90;;;;;;5053662;28;20019;-73
2022/09/06 04:46:50;;;;;;;;;;;14.50;99.90;;;;;;5079648;28;19925;-73
2022/09/06 04:49:22;;;;;;;;;;;14.50;99.90;;;;;;5068310;28;19925;-74
2022/09/06 04:51:54;;;;;;;;;;;14.50;99.90;;;;;;5077160;28;19924;-74
2022/09/06 04:54:20;;;;;;;;;;;14.40;99.90;;;;;;5055648;28;19924;-74
2022/09/06 04:56:52;;;;;;;;;;;14.50;99.90;;;;;;5077746;28;19924;-74
2022/09/06 04:59:18;;;;;;;;;;;14.50;99.90;;;;;;5060704;28;20674;-73
2022/09/06 05:01:50;;;;;;;;;;;14.50;99.90;;;;;;5059991;28;19925;-73
2022/09/06 05:04:22;;;;;;;;;;;14.60;99.90;;;;;;5067153;28;20279;-79
2022/09/06 05:06:48;;;;;;;;;;;14.60;99.90;;;;;;5062977;28;19924;-73
2022/09/06 05:09:20;;;;;;;;;;;14.60;99.90;;;;;;5056314;28;19971;-73
2022/09/06 05:11:52;;;;;;;;;;;14.60;99.90;;;;;;5082629;28;19935;-73
2022/09/06 05:14:24;;;;;;;;;;;14.60;99.90;;;;;;5081476;28;19935;-74
2022/09/06 05:16:56;;;;;;;;;;;14.60;99.90;;;;;;5054918;28;19928;-73
2022/09/06 05:19:27;;;;;;;;;;;14.50;99.90;;;;;;5060893;28;19931;-73
2022/09/06 05:21:59;;;;;;;;;;;14.30;99.90;;;;;;5077158;28;19928;-73
2022/09/06 05:24:25;;;;;;;;;;;14.30;99.90;;;;;;5047961;28;19925;-73
2022/09/06 05:26:57;;;;;;;;;;;14.40;99.90;;;;;;5050674;28;19956;-73
2022/09/06 05:29:29;;;;;;;;;;;14.50;99.90;;;;;;5053542;28;19924;-73
2022/09/06 05:32:01;;;;;;;;;;;14.60;99.90;;;;;;5073564;28;19924;-73
2022/09/06 05:34:32;;;;;;;;;;;14.60;99.90;;;;;;5077346;28;19931;-73
2022/09/06 05:37:04;;;;;;;;;;;14.70;99.90;;;;;;5079201;28;20292;-73
2022/09/06 05:39:36;;;;;;;;;;;14.70;99.90;;;;;;5060736;28;19934;-73
2022/09/06 05:42:07;;;;;;;;;;;14.80;99.90;;;;;;5073436;28;19932;-73
2022/09/06 05:44:39;;;;;;;;;;;14.70;99.90;;;;;;5062085;28;19928;-73
2022/09/06 05:47:11;;;;;;;;;;;14.70;99.90;;;;;;5075587;28;20015;-74
2022/09/06 05:49:42;;;;;;;;;;;14.70;99.90;;;;;;5077696;28;19925;-73
2022/09/06 05:52:09;;;;;;;;;;;14.70;99.90;;;;;;5081118;28;20287;-73
2022/09/06 05:54:35;;;;;;;;;;;14.80;99.90;;;;;;5050664;28;19929;-74
2022/09/06 05:57:07;;;;;;;;;;;14.90;99.90;;;;;;5054000;28;19925;-73
2022/09/06 05:59:39;;;;;;;;;;;15.00;99.90;;;;;;5061793;28;20012;-73
2022/09/06 06:02:06;;;;;;;;;;;15.10;99.90;;;;;;5061044;28;19932;-73
2022/09/06 06:04:37;;;;;;;;;;;15.30;99.90;;;;;;5067606;28;19943;-74
2022/09/06 06:07:09;;;;;;;;;;;15.40;99.90;;;;;;5058243;28;19940;-73
2022/09/06 06:09:41;;;;;;;;;;;15.50;99.90;;;;;;5076393;28;20334;-73
2022/09/06 06:12:13;;;;;;;;;;;15.60;99.90;;;;;;5067472;28;19963;-73
2022/09/06 06:14:44;;;;;;;;;;;15.70;99.90;;;;;;5066646;28;19936;-73
2022/09/06 06:17:11;;;;;;;;;;;15.70;99.90;;;;;;5054939;28;19971;-73
2022/09/06 06:19:42;;;;;;;;;;;15.80;99.90;;;;;;5056889;28;19924;-73
2022/09/06 06:22:14;;;;;;;;;;;15.90;99.90;;;;;;5075466;28;19939;-73
2022/09/06 06:24:46;;;;;;;;;;;16.00;99.90;;;;;;5059394;28;19928;-73
2022/09/06 06:27:17;;;;;;;;;;;16.10;99.90;;;;;;5063638;28;19950;-73
2022/09/06 06:29:49;;;;;;;;;;;16.20;99.90;;;;;;5077601;28;20430;-73
2022/09/06 06:32:21;;;;;;;;;;;16.30;99.90;;;;;;5082455;28;20516;-74
2022/09/06 06:34:47;;;;;;;;;;;16.40;99.90;;;;;;5065335;28;19928;-73
2022/09/06 06:37:19;;;;;;;;;;;16.50;99.90;;;;;;5067407;28;19925;-73
2022/09/06 06:39:51;;;;;;;;;;;16.50;99.90;;;;;;5061297;28;19935;-73
2022/09/06 06:42:17;;;;;;;;;;;16.50;99.90;;;;;;5064784;28;20310;-73
2022/09/06 06:44:52;;;;;;;;;;;16.60;99.90;;;;;;5058135;28;19935;-73
2022/09/06 06:47:24;;;;;;;;;;;16.70;99.90;;;;;;5067445;28;19969;-73
2022/09/06 06:49:55;;;;;;;;;;;16.70;99.90;;;;;;5085293;28;19924;-73
2022/09/06 06:52:23;;;;;;;;;;;16.80;99.90;;;;;;5078020;28;19928;-73
2022/09/06 06:54:55;;;;;;;;;;;16.90;99.90;;;;;;5056652;28;19928;-73
2022/09/06 06:57:26;;;;;;;;;;;16.90;99.90;;;;;;5087031;28;20002;-73
2022/09/06 06:59:58;;;;;;;;;;;17.00;99.90;;;;;;5079592;28;19929;-73
2022/09/06 07:02:30;;;;;;;;;;;17.00;99.90;;;;;;5073635;28;20424;-73
2022/09/06 07:05:02;;;;;;;;;;;17.10;99.90;;;;;;5082695;28;19924;-73
2022/09/06 07:07:28;;;;;;;;;;;17.10;99.90;;;;;;5077284;28;19928;-73
2022/09/06 07:10:00;;;;;;;;;;;17.10;99.90;;;;;;5059240;28;19979;-73
2022/09/06 07:12:32;;;;;;;;;;;17.10;99.90;;;;;;5070178;28;19924;-73
2022/09/06 07:15:04;;;;;;;;;;;17.20;99.90;;;;;;5074736;28;19928;-73
2022/09/06 07:17:30;;;;;;;;;;;17.30;99.90;;;;;;5076405;28;20322;-73
2022/09/06 07:20:02;;;;;;;;;;;17.50;99.90;;;;;;5080763;28;19924;-73
2022/09/06 07:22:34;;;;;;;;;;;17.60;99.90;;;;;;5077158;28;20007;-73
2022/09/06 07:25:07;;;;;;;;;;;17.70;99.90;;;;;;5081051;28;20389;-74
2022/09/06 07:27:38;;;;;;;;;;;17.80;99.90;;;;;;5068051;28;20028;-73
2022/09/06 07:30:10;;;;;;;;;;;17.90;99.90;;;;;;5061057;28;19925;-73
2022/09/06 07:32:42;;;;;;;;;;;18.00;99.90;;;;;;5078207;28;19924;-73
2022/09/06 07:35:08;;;;;;;;;;;18.20;99.90;;;;;;5059515;28;19924;-73
2022/09/06 07:37:40;;;;;;;;;;;18.30;99.90;;;;;;5071862;28;20003;-74
2022/09/06 07:40:12;;;;;;;;;;;18.40;99.90;;;;;;5073219;28;20287;-74
2022/09/06 07:42:38;;;;;;;;;;;18.40;99.90;;;;;;5078914;28;20291;-73
2022/09/06 07:45:10;;;;;;;;;;;18.40;99.90;;;;;;5065840;28;19924;-80
2022/09/06 07:47:42;;;;;;;;;;;18.50;99.90;;;;;;5059289;28;19934;-74
2022/09/06 07:50:13;;;;;;;;;;;18.50;99.90;;;;;;5058429;28;19924;-74
2022/09/06 07:52:45;;;;;;;;;;;18.60;99.90;;;;;;5076057;28;19929;-74
2022/09/06 07:55:17;;;;;;;;;;;18.60;99.90;;;;;;5065830;28;19935;-74
2022/09/06 07:57:43;;;;;;;;;;;18.80;99.90;;;;;;5079811;28;19947;-74
2022/09/06 08:00:11;;;;;;;;;;;19.00;99.90;;;;;;5049037;28;19932;-74
2022/09/06 08:02:42;;;;;;;;;;;19.10;99.90;;;;;;5075530;28;19932;-74
2022/09/06 08:05:14;;;;;;;;;;;19.20;99.90;;;;;;5045739;28;20456;-74
2022/09/06 08:07:46;;;;;;;;;;;19.30;99.90;;;;;;5060075;28;19928;-74
2022/09/06 08:10:17;;;;;;;;;;;19.40;99.90;;;;;;5065347;28;20006;-74
2022/09/06 08:12:44;;;;;;;;;;;19.50;99.90;;;;;;5071900;28;19929;-73
2022/09/06 08:15:15;;;;;;;;;;;19.60;99.90;;;;;;5076686;28;20434;-73
2022/09/06 08:17:47;;;;;;;;;;;19.70;99.90;;;;;;5077696;28;19924;-73
2022/09/06 08:20:15;;;;;;;;;;;19.80;99.90;;;;;;5049981;28;19932;-73
2022/09/06 08:22:46;;;;;;;;;;;19.90;99.90;;;;;;5045829;28;19928;-73
2022/09/06 08:25:18;;;;;;;;;;;20.00;99.90;;;;;;5073188;28;20375;-73
2022/09/06 08:27:49;;;;;;;;;;;20.10;99.90;;;;;;5073504;28;19924;-73
2022/09/06 08:30:21;;;;;;;;;;;20.20;99.90;;;;;;5057392;28;20391;-73
2022/09/06 08:32:53;;;;;;;;;;;20.20;99.90;;;;;;5056305;28;20434;-73
2022/09/06 08:35:25;;;;;;;;;;;20.30;99.90;;;;;;5069264;28;19929;-73
2022/09/06 08:37:56;;;;;;;;;;;20.30;99.90;;;;;;5059035;28;19974;-73
2022/09/06 08:40:24;;;;;;;;;;;20.30;99.90;;;;;;5069245;28;19940;-73
2022/09/06 08:42:55;;;;;;;;;;;20.50;99.90;;;;;;5055151;28;19924;-73
2022/09/06 08:45:27;;;;;;;;;;;20.60;99.90;;;;;;5071777;28;19928;-73
2022/09/06 08:47:54;;;;;;;;;;;20.60;99.90;;;;;;5063964;28;19928;-73
2022/09/06 08:50:27;;;;;;;;;;;20.60;99.90;;;;;;5074970;28;19924;-73
2022/09/06 08:53:02;;;;;;;;;;;20.70;99.90;;;;;;5068357;28;19934;-73
2022/09/06 08:55:34;;;;;;;;;;;20.80;99.90;;;;;;5084058;28;20023;-73
2022/09/06 08:58:06;;;;;;;;;;;20.90;99.90;;;;;;5041396;28;19936;-73
2022/09/06 09:00:33;;;;;;;;;;;21.10;99.90;;;;;;5064597;28;19930;-73
2022/09/06 09:03:08;;;;;;;;;;;21.20;99.90;;;;;;5076790;28;19928;-73
2022/09/06 09:05:40;;;;;;;;;;;21.40;99.90;;;;;;5080721;28;20433;-73
2022/09/06 09:08:23;;;;;;;;;;;21.50;99.90;;;;;;5053981;28;19932;-73
2022/09/06 09:11:00;;;;;;;;;;;21.70;99.90;;;;;;5054476;28;19940;-73
2022/09/06 09:13:50;;;;;;;;;;;21.80;99.90;;;;;;5050841;28;20421;-73
2022/09/06 09:16:22;;;;;;;;;;;21.80;99.90;;;;;;5072711;28;19932;-73
2022/09/06 09:18:57;;;;;;;;;;;21.90;99.90;;;;;;5080806;28;19929;-73
2022/09/06 09:21:31;;;;;;;;;;;22.00;99.90;;;;;;5079807;28;19995;-73
2022/09/06 09:24:05;;;;;;;;;;;22.00;99.90;;;;;;5065949;28;19929;-73
2022/09/06 09:26:39;;;;;;;;;;;22.10;99.90;;;;;;5079697;28;19924;-73
2022/09/06 09:29:12;;;;;;;;;;;22.10;99.90;;;;;;5056340;28;20027;-73
2022/09/06 09:31:48;;;;;;;;;;;22.10;99.90;;;;;;5055634;28;20022;-73
2022/09/06 09:34:29;;;;;;;;;;;22.00;99.90;;;;;;5081013;28;19928;-73
2022/09/06 09:37:11;;;;;;;;;;;22.00;99.90;;;;;;5050741;28;20296;-73
2022/09/06 09:39:43;;;;;;;;;;;22.10;99.90;;;;;;5056458;28;19931;-73
2022/09/06 09:42:23;;;;;;;;;;;22.20;99.90;;;;;;5057583;28;19928;-73
2022/09/06 09:44:55;;;;;;;;;;;22.40;99.90;;;;;;5068764;28;19933;-72
2022/09/06 09:47:31;;;;;;;;;;;22.60;99.90;;;;;;5057233;28;19935;-73
2022/09/06 09:50:21;;;;;;;;;;;22.90;99.90;;;;;;5065850;28;19928;-73
2022/09/06 09:52:52;;;;;;;;;;;23.10;99.90;;;;;;5058113;28;19925;-73
2022/09/06 09:55:23;;;;;;;;;;;23.30;99.90;;;;;;5056636;28;19924;-73
2022/09/06 09:57:55;;;;;;;;;;;23.60;99.90;;;;;;5053527;28;19928;-73
2022/09/06 10:00:38;;;;;;;;;;;23.70;99.90;;;;;;5058061;28;19967;-73
2022/09/06 10:03:24;;;;;;;;;;;23.80;99.90;;;;;;5042056;28;20058;-73
2022/09/06 10:05:59;;;;;;;;;;;24.00;99.90;;;;;;5054850;28;20030;-73
2022/09/06 10:08:31;;;;;;;;;;;24.00;99.90;;;;;;5054125;28;20260;-73
2022/09/06 10:10:59;;;;;;;;;;;24.10;99.90;;;;;;5053868;28;19925;-73
2022/09/06 10:13:31;;;;;;;;;;;24.20;99.90;;;;;;5075653;28;20465;-73
2022/09/06 10:15:59;;;;;;;;;;;24.30;99.90;;;;;;5071401;28;19925;-73
2022/09/06 10:18:31;;;;;;;;;;;24.30;99.90;;;;;;5049390;28;19924;-73
2022/09/06 10:21:00;;;;;;;;;;;24.20;99.90;;;;;;5063578;28;19955;-73
2022/09/06 10:23:44;;;;;;;;;;;24.10;99.90;;;;;;5065963;28;19994;-73
2022/09/06 10:26:15;;;;;;;;;;;24.00;99.90;;;;;;5046536;28;20350;-73
2022/09/06 10:28:49;;;;;;;;;;;24.00;99.90;;;;;;5081386;28;20027;-73
2022/09/06 10:31:21;;;;;;;;;;;24.20;99.90;;;;;;5060222;28;19925;-73
2022/09/06 10:33:52;;;;;;;;;;;24.30;99.90;;;;;;5071044;28;20350;-73
2022/09/06 10:36:28;;;;;;;;;;;24.40;99.90;;;;;;5072547;28;19925;-73
2022/09/06 10:39:03;;;;;;;;;;;24.50;99.90;;;;;;5049723;28;19924;-73
2022/09/06 10:41:49;;;;;;;;;;;24.50;99.90;;;;;;5076707;28;19935;-73
2022/09/06 10:44:33;;;;;;;;;;;24.40;99.90;;;;;;5059276;28;19924;-73
2022/09/06 10:47:09;;;;;;;;;;;24.40;99.90;;;;;;5079523;28;19928;-73
2022/09/06 10:49:37;;;;;;;;;;;24.40;99.90;;;;;;5057371;28;20305;-73
2022/09/06 10:52:11;;;;;;;;;;;24.40;99.90;;;;;;5062324;28;19931;-73
2022/09/06 10:54:46;;;;;;;;;;;24.30;99.90;;;;;;5066170;28;19933;-73
2022/09/06 10:57:24;;;;;;;;;;;24.30;99.90;;;;;;5049539;28;19975;-73
2022/09/06 11:00:00;;;;;;;;;;;24.40;99.90;;;;;;5075150;28;19932;-73
2022/09/06 11:02:55;;;;;;;;;;;24.50;99.90;;;;;;5070736;28;19951;-74
2022/09/06 11:05:33;;;;;;;;;;;24.50;99.90;;;;;;5035188;28;19967;-72
2022/09/06 11:08:14;;;;;;;;;;;24.70;99.90;;;;;;5035317;28;19924;-73
2022/09/06 11:10:48;;;;;;;;;;;24.80;99.90;;;;;;5074878;28;19928;-73
2022/09/06 11:13:25;;;;;;;;;;;24.90;99.90;;;;;;5071695;28;19924;-73
2022/09/06 11:16:05;;;;;;;;;;;24.90;99.90;;;;;;5080075;28;20050;-73
2022/09/06 11:18:40;;;;;;;;;;;25.00;99.90;;;;;;5060622;28;19928;-73
2022/09/06 11:21:14;;;;;;;;;;;25.00;99.90;;;;;;5066689;28;19925;-73
2022/09/06 11:23:57;;;;;;;;;;;25.20;99.90;;;;;;5076542;28;19928;-73
2022/09/06 11:26:33;;;;;;;;;;;25.20;99.90;;;;;;5070385;28;20011;-72
2022/09/06 11:29:25;;;;;;;;;;;25.40;99.90;;;;;;5075596;28;19930;-73
2022/09/06 11:31:56;;;;;;;;;;;25.70;99.90;;;;;;5062853;28;19959;-73
2022/09/06 11:34:30;;;;;;;;;;;25.60;99.90;;;;;;5091667;28;19924;-72
2022/09/06 11:36:57;;;;;;;;;;;25.80;99.90;;;;;;5072596;28;19951;-73
2022/09/06 11:39:41;;;;;;;;;;;25.80;99.90;;;;;;5077962;28;19924;-73
2022/09/06 11:42:31;;;;;;;;;;;25.70;99.90;;;;;;5079730;28;20276;-73
2022/09/06 11:45:03;;;;;;;;;;;25.70;99.90;;;;;;5058874;28;20026;-73
2022/09/06 11:47:34;;;;;;;;;;;25.70;99.90;;;;;;5080758;28;20015;-73
2022/09/06 11:50:27;;;;;;;;;;;25.60;99.90;;;;;;5074870;28;20414;-73
2022/09/06 11:52:59;;;;;;;;;;;25.50;99.90;;;;;;5047828;28;19931;-73
2022/09/06 11:55:35;;;;;;;;;;;25.50;99.90;;;;;;5057161;28;19924;-73
2022/09/06 11:58:19;;;;;;;;;;;25.70;99.90;;;;;;5057274;28;20413;-73
2022/09/06 12:01:09;;;;;;;;;;;25.90;99.90;;;;;;5065305;28;19924;-73
2022/09/06 12:03:47;;;;;;;;;;;26.10;99.90;;;;;;5053888;28;19935;-73
2022/09/06 12:06:19;;;;;;;;;;;26.20;99.90;;;;;;5047459;28;19924;-73
2022/09/06 12:08:51;;;;;;;;;;;26.30;99.90;;;;;;5056701;28;19932;-73
2022/09/06 12:11:27;;;;;;;;;;;26.40;99.90;;;;;;5074314;28;19925;-73
2022/09/06 12:13:55;;;;;;;;;;;26.40;99.90;;;;;;5062065;28;19924;-73
2022/09/06 12:16:46;;;;;;;;;;;26.40;99.90;;;;;;5089818;28;19928;-73
2022/09/06 12:19:36;;;;;;;;;;;26.40;99.90;;;;;;5076040;28;21550;-73
2022/09/06 12:22:26;;;;;;;;;;;26.30;99.90;;;;;;5062455;28;19931;-73
2022/09/06 12:25:17;;;;;;;;;;;26.20;99.90;;;;;;5066057;28;20410;-73
2022/09/06 12:27:59;;;;;;;;;;;26.00;99.90;;;;;;5072559;28;19924;-73
2022/09/06 12:30:36;;;;;;;;;;;25.90;99.90;;;;;;5063568;28;19925;-73
2022/09/06 12:33:17;;;;;;;;;;;25.80;99.90;;;;;;5065329;28;20023;-73
2022/09/06 12:35:49;;;;;;;;;;;25.90;99.90;;;;;;5073940;28;19925;-73
2022/09/06 12:38:22;;;;;;;;;;;25.90;99.90;;;;;;5052817;28;19924;-73
2022/09/06 12:40:57;;;;;;;;;;;25.90;99.90;;;;;;5081171;28;19924;-73
2022/09/06 12:43:24;;;;;;;;;;;25.80;99.90;;;;;;5071362;28;20379;-73
2022/09/06 12:45:58;;;;;;;;;;;25.80;99.90;;;;;;5071492;28;19928;-73
2022/09/06 12:48:31;;;;;;;;;;;25.90;99.90;;;;;;5044908;28;19935;-73
2022/09/06 12:51:03;;;;;;;;;;;25.90;99.90;;;;;;5069024;28;20299;-73
2022/09/06 12:53:35;;;;;;;;;;;26.00;99.90;;;;;;5067532;28;19935;-73
2022/09/06 12:56:08;;;;;;;;;;;26.00;99.90;;;;;;5060617;28;19935;-73
2022/09/06 12:58:40;;;;;;;;;;;26.00;99.90;;;;;;5055991;28;20311;-72
2022/09/06 13:01:19;;;;;;;;;;;25.90;99.90;;;;;;5060909;28;20010;-73
2022/09/06 13:04:09;;;;;;;;;;;25.80;99.90;;;;;;5069530;28;20438;-72
2022/09/06 13:06:42;;;;;;;;;;;25.80;99.90;;;;;;5059738;28;20509;-73
2022/09/06 13:09:16;;;;;;;;;;;25.80;99.90;;;;;;5065175;28;20015;-73
2022/09/06 13:11:50;;;;;;;;;;;26.00;99.90;;;;;;5064813;28;19971;-73
2022/09/06 13:14:23;;;;;;;;;;;26.10;99.90;;;;;;5054442;28;20311;-73
2022/09/06 13:16:58;;;;;;;;;;;26.20;99.90;;;;;;5056384;28;20012;-73
2022/09/06 13:19:32;;;;;;;;;;;26.20;99.90;;;;;;5071215;28;19932;-73
2022/09/06 13:21:59;;;;;;;;;;;26.30;99.90;;;;;;5069090;28;19935;-73
2022/09/06 13:24:33;;;;;;;;;;;26.30;99.90;;;;;;5068512;28;19941;-73
2022/09/06 13:27:25;;;;;;;;;;;26.30;99.90;;;;;;5063419;28;19932;-73
2022/09/06 13:29:58;;;;;;;;;;;26.20;99.90;;;;;;5072793;28;19935;-73
2022/09/06 13:32:29;;;;;;;;;;;26.20;99.90;;;;;;5056394;28;19936;-73
2022/09/06 13:35:01;;;;;;;;;;;26.20;99.90;;;;;;5078486;28;19928;-73
2022/09/06 13:37:35;;;;;;;;;;;26.30;99.90;;;;;;5067278;28;19939;-73
2022/09/06 13:40:25;;;;;;;;;;;26.30;99.90;;;;;;5059136;28;20365;-72
2022/09/06 13:43:00;;;;;;;;;;;26.30;99.90;;;;;;5077781;28;19928;-73
2022/09/06 13:45:32;;;;;;;;;;;26.30;99.90;;;;;;5065557;28;20476;-73
2022/09/06 13:48:04;;;;;;;;;;;26.30;99.90;;;;;;5043784;28;19925;-73
2022/09/06 13:50:36;;;;;;;;;;;26.20;99.90;;;;;;5073591;28;19934;-73
2022/09/06 13:53:07;;;;;;;;;;;26.20;99.90;;;;;;5049762;28;20395;-72
2022/09/06 13:55:40;;;;;;;;;;;26.00;99.90;;;;;;5050839;28;20402;-73
2022/09/06 13:58:11;;;;;;;;;;;26.00;99.90;;;;;;5055008;28;20546;-73
2022/09/06 14:00:44;;;;;;;;;;;25.90;99.90;;;;;;5064018;28;20291;-73
2022/09/06 14:03:21;;;;;;;;;;;25.90;99.90;;;;;;5060232;28;20027;-73
2022/09/06 14:05:53;;;;;;;;;;;25.90;99.90;;;;;;5064338;28;19924;-73
2022/09/06 14:08:25;;;;;;;;;;;25.80;99.90;;;;;;5077686;28;20398;-73
2022/09/06 14:10:56;;;;;;;;;;;25.90;99.90;;;;;;5051524;28;20461;-73
2022/09/06 14:13:28;;;;;;;;;;;25.80;99.90;;;;;;5056510;28;20403;-73
2022/09/06 14:16:00;;;;;;;;;;;25.80;99.90;;;;;;5058378;28;20371;-73
2022/09/06 14:18:32;;;;;;;;;;;25.70;99.90;;;;;;5064442;28;19924;-73
2022/09/06 14:21:04;;;;;;;;;;;25.70;99.90;;;;;;5072751;28;19931;-73
2022/09/06 14:23:35;;;;;;;;;;;25.60;99.90;;;;;;5076959;28;19928;-73
2022/09/06 14:26:08;;;;;;;;;;;25.60;99.90;;;;;;5054899;28;19931;-73
2022/09/06 14:28:39;;;;;;;;;;;25.50;99.90;;;;;;5066943;28;19931;-73
2022/09/06 14:31:16;;;;;;;;;;;25.50;99.90;;;;;;5063312;28;19924;-72
2022/09/06 14:33:47;;;;;;;;;;;25.40;99.90;;;;;;5076423;28;20294;-73
2022/09/06 14:36:20;;;;;;;;;;;25.40;99.90;;;;;;5068677;28;19924;-73
2022/09/06 14:38:52;;;;;;;;;;;25.40;99.90;;;;;;5057090;28;20020;-73
2022/09/06 14:41:24;;;;;;;;;;;25.40;99.90;;;;;;5074147;28;19931;-73
2022/09/06 14:43:56;;;;;;;;;;;25.30;99.90;;;;;;5059971;28;19925;-73
2022/09/06 14:46:28;;;;;;;;;;;25.30;99.90;;;;;;5076585;28;19932;-73
2022/09/06 14:49:02;;;;;;;;;;;25.30;99.90;;;;;;5056758;28;20397;-73
2022/09/06 14:51:34;;;;;;;;;;;25.20;99.90;;;;;;5056507;28;19924;-73